Time;durP1;ratioP1;P1;durP2;ratioP2;P2;SDS_P1;SDS_P2;PMS_P1;PMS_P2;Temp;Humidity;BMP_temperature;BMP_pressure;BME280_temperature;BME280_humidity;BME280_pressure;Samples;Min_cycle;Max_cycle;Signal;HPM_P1;HPM_P2
2022/10/17 00:01:02;;;;;;;0.50;0.50;;;13.50;99.90;;;;;;4417645;32;20090;-75
2022/10/17 00:03:29;;;;;;;0.77;0.77;;;13.50;99.90;;;;;;4401112;32;20089;-75
2022/10/17 00:05:54;;;;;;;38.90;1.05;;;13.50;99.90;;;;;;4398135;32;20085;-75
2022/10/17 00:08:20;;;;;;;0.77;0.77;;;13.60;99.90;;;;;;4410867;32;20505;-75
2022/10/17 00:10:55;;;;;;;0.80;0.80;;;13.60;99.90;;;;;;4416106;32;20081;-76
2022/10/17 00:13:21;;;;;;;12.57;0.80;;;13.60;99.90;;;;;;4415011;32;20110;-76
2022/10/17 00:15:46;;;;;;;5.30;0.60;;;13.70;99.90;;;;;;4417116;32;20462;-76
2022/10/17 00:18:12;;;;;;;0.80;0.73;;;13.70;99.90;;;;;;4417882;32;20696;-76
2022/10/17 00:20:37;;;;;;;0.55;0.43;;;13.80;99.90;;;;;;4414940;32;20197;-76
2022/10/17 00:23:02;;;;;;;0.85;0.60;;;13.80;99.90;;;;;;4421101;32;20128;-76
2022/10/17 00:25:28;;;;;;;3.83;1.73;;;13.70;99.90;;;;;;4414409;32;20069;-76
2022/10/17 00:27:53;;;;;;;1.48;0.43;;;13.70;99.90;;;;;;4413423;32;20093;-77
2022/10/17 00:30:19;;;;;;;0.60;0.60;;;13.60;99.90;;;;;;4417311;32;20177;-76
2022/10/17 00:32:45;;;;;;;0.50;0.50;;;13.60;99.90;;;;;;4406783;32;20093;-76
2022/10/17 00:35:10;;;;;;;7.20;1.80;;;13.50;99.90;;;;;;4392298;32;20571;-76
2022/10/17 00:37:36;;;;;;;0.70;0.70;;;13.40;99.90;;;;;;4411053;32;20124;-76
2022/10/17 00:40:03;;;;;;;0.70;0.70;;;13.40;99.90;;;;;;4416592;32;20081;-76
2022/10/17 00:42:28;;;;;;;0.90;0.90;;;13.50;99.90;;;;;;4416778;32;20078;-76
2022/10/17 00:45:17;;;;;;;1.45;0.88;;;13.60;99.90;;;;;;4415914;32;20081;-76
2022/10/17 00:47:47;;;;;;;0.95;0.82;;;13.60;99.90;;;;;;4403429;32;20093;-76
2022/10/17 00:50:14;;;;;;;2.83;1.50;;;13.60;99.90;;;;;;4417164;32;20082;-76
2022/10/17 00:52:40;;;;;;;0.40;0.40;;;13.50;99.90;;;;;;4417255;32;20560;-76
2022/10/17 00:55:12;;;;;;;0.85;0.82;;;13.60;99.90;;;;;;4416326;32;20498;-76
2022/10/17 00:57:39;;;;;;;0.60;0.60;;;13.60;99.90;;;;;;4416819;32;20089;-76
2022/10/17 01:00:08;;;;;;;1.25;1.02;;;13.60;99.90;;;;;;4416435;32;20396;-76
2022/10/17 01:02:34;;;;;;;1.05;0.95;;;13.50;99.90;;;;;;4410116;32;20479;-76
2022/10/17 01:05:00;;;;;;;0.52;0.50;;;13.60;99.90;;;;;;4387832;32;20285;-76
2022/10/17 01:07:27;;;;;;;2.75;1.65;;;13.60;99.90;;;;;;4406463;32;20070;-77
2022/10/17 01:09:54;;;;;;;1.12;1.02;;;13.60;99.90;;;;;;4416867;32;20081;-76
2022/10/17 01:12:25;;;;;;;0.55;0.55;;;13.60;99.90;;;;;;4414699;32;20088;-77
2022/10/17 01:15:17;;;;;;;1.30;0.95;;;13.70;99.90;;;;;;4413389;32;20069;-76
2022/10/17 01:17:54;;;;;;;0.52;0.52;;;13.70;99.90;;;;;;4403218;32;20066;-76
2022/10/17 01:20:52;;;;;;;0.80;0.80;;;13.70;99.90;;;;;;4415455;32;20156;-76
2022/10/17 01:23:36;;;;;;;0.93;0.93;;;13.70;99.90;;;;;;4403388;32;20090;-77
2022/10/17 01:26:26;;;;;;;0.50;0.50;;;13.70;99.90;;;;;;4415636;32;20090;-76
2022/10/17 01:29:11;;;;;;;1.05;0.80;;;13.70;99.90;;;;;;4403105;32;20088;-77
2022/10/17 01:31:45;;;;;;;2.20;1.05;;;13.80;99.90;;;;;;4413454;32;20093;-77
2022/10/17 01:34:19;;;;;;;1.15;0.80;;;13.80;99.90;;;;;;4390696;32;20543;-76
2022/10/17 01:37:07;;;;;;;0.60;0.60;;;13.70;99.90;;;;;;4400797;32;20089;-76
2022/10/17 01:39:57;;;;;;;0.60;0.60;;;13.60;99.90;;;;;;4403122;32;20131;-76
2022/10/17 01:42:29;;;;;;;1.42;1.10;;;13.60;99.90;;;;;;4405227;32;20147;-76
2022/10/17 01:44:58;;;;;;;0.70;0.70;;;13.50;99.90;;;;;;4416980;32;20362;-76
2022/10/17 01:47:29;;;;;;;0.60;0.60;;;13.40;99.90;;;;;;4412143;32;20094;-76
2022/10/17 01:50:01;;;;;;;3.25;0.90;;;13.30;99.90;;;;;;4415405;32;20072;-77
2022/10/17 01:52:34;;;;;;;3.70;0.80;;;13.30;99.90;;;;;;4416508;32;20482;-77
2022/10/17 01:55:11;;;;;;;0.50;0.50;;;13.30;99.90;;;;;;4415013;32;20085;-77
2022/10/17 01:57:42;;;;;;;6.85;1.85;;;13.20;99.90;;;;;;4414849;32;20211;-77
2022/10/17 02:00:13;;;;;;;0.55;0.55;;;13.20;99.90;;;;;;4416883;32;20345;-77
2022/10/17 02:02:40;;;;;;;1.02;0.70;;;13.20;99.90;;;;;;4411261;32;20419;-76
2022/10/17 02:05:07;;;;;;;0.88;0.88;;;13.20;99.90;;;;;;4390263;32;20605;-75
2022/10/17 02:07:32;;;;;;;0.80;0.80;;;13.20;99.90;;;;;;4408101;32;20082;-76
2022/10/17 02:09:58;;;;;;;1.05;0.90;;;13.20;99.90;;;;;;4417044;32;20084;-76
2022/10/17 02:12:36;;;;;;;2.20;1.27;;;13.10;99.90;;;;;;4413243;32;20548;-76
2022/10/17 02:15:15;;;;;;;0.47;0.47;;;13.10;99.90;;;;;;4414115;32;20093;-76
2022/10/17 02:17:55;;;;;;;3.75;0.80;;;13.10;99.90;;;;;;4414107;32;20120;-76
2022/10/17 02:20:44;;;;;;;3.67;0.95;;;13.10;99.90;;;;;;4415283;32;20081;-76
2022/10/17 02:23:22;;;;;;;1.30;0.82;;;13.10;99.90;;;;;;4407834;32;20536;-76
2022/10/17 02:26:00;;;;;;;1.50;1.05;;;13.10;99.90;;;;;;4419335;32;20093;-76
2022/10/17 02:28:43;;;;;;;0.77;0.77;;;13.20;99.90;;;;;;4418118;32;20190;-76
2022/10/17 02:31:16;;;;;;;0.80;0.80;;;13.20;99.90;;;;;;4413734;32;20073;-76
2022/10/17 02:34:03;;;;;;;1.50;1.40;;;13.30;99.90;;;;;;4397057;32;20077;-76
2022/10/17 02:36:37;;;;;;;0.82;0.82;;;13.40;99.90;;;;;;4388040;32;20097;-76
2022/10/17 02:39:05;;;;;;;0.60;0.60;;;13.40;99.90;;;;;;4415003;32;20117;-76
2022/10/17 02:41:31;;;;;;;0.88;0.80;;;13.40;99.90;;;;;;4413735;32;20121;-76
2022/10/17 02:43:57;;;;;;;2.40;0.95;;;13.50;99.90;;;;;;4415594;32;20094;-76
2022/10/17 02:46:25;;;;;;;0.70;0.70;;;13.50;99.90;;;;;;4417494;32;20428;-76
2022/10/17 02:48:56;;;;;;;0.60;0.60;;;13.50;99.90;;;;;;4414802;32;20081;-76
2022/10/17 02:51:41;;;;;;;1.50;1.00;;;13.50;99.90;;;;;;4417998;32;20521;-76
2022/10/17 02:54:16;;;;;;;0.50;0.50;;;13.50;99.90;;;;;;4401673;32;20085;-77
2022/10/17 02:57:07;;;;;;;0.50;0.50;;;13.50;99.90;;;;;;4417063;32;20077;-76
2022/10/17 02:59:35;;;;;;;0.50;0.50;;;13.60;99.90;;;;;;4405780;32;20098;-76
2022/10/17 03:02:04;;;;;;;0.85;0.82;;;13.60;99.90;;;;;;4416921;32;20512;-76
2022/10/17 03:04:30;;;;;;;0.77;0.77;;;13.70;99.90;;;;;;4392859;32;20069;-76
2022/10/17 03:06:55;;;;;;;0.75;0.75;;;13.80;99.90;;;;;;4404721;32;20074;-76
2022/10/17 03:09:20;;;;;;;0.70;0.70;;;13.80;99.90;;;;;;4417637;32;20549;-76
2022/10/17 03:11:46;;;;;;;0.70;0.70;;;13.80;99.90;;;;;;4416048;32;20094;-76
2022/10/17 03:14:11;;;;;;;0.60;0.60;;;13.80;99.90;;;;;;4419499;32;20102;-76
2022/10/17 03:16:37;;;;;;;0.62;0.62;;;13.80;99.90;;;;;;4416282;32;20090;-76
2022/10/17 03:19:03;;;;;;;16.35;2.15;;;13.80;99.90;;;;;;4409757;32;20093;-76
2022/10/17 03:21:29;;;;;;;1.30;1.20;;;13.80;99.90;;;;;;4416316;32;20089;-76
2022/10/17 03:23:55;;;;;;;0.40;0.40;;;13.90;99.90;;;;;;4416985;32;20074;-76
2022/10/17 03:26:20;;;;;;;0.98;0.82;;;13.80;99.90;;;;;;4417995;32;20087;-77
2022/10/17 03:28:46;;;;;;;1.42;0.93;;;13.90;99.90;;;;;;4420901;32;20073;-76
2022/10/17 03:31:15;;;;;;;0.60;0.60;;;13.90;99.90;;;;;;4419241;32;20073;-76
2022/10/17 03:33:40;;;;;;;0.80;0.80;;;13.90;99.90;;;;;;4400493;32;20093;-76
2022/10/17 03:36:08;;;;;;;0.55;0.55;;;13.90;99.90;;;;;;4398821;32;20070;-76
2022/10/17 03:38:34;;;;;;;2.10;1.17;;;13.90;99.90;;;;;;4414898;32;20085;-76
2022/10/17 03:41:00;;;;;;;0.70;0.70;;;13.90;99.90;;;;;;4414347;32;20435;-77
2022/10/17 03:43:26;;;;;;;3.10;0.88;;;14.00;99.90;;;;;;4421919;32;20089;-75
2022/10/17 03:45:51;;;;;;;0.50;0.50;;;14.00;99.90;;;;;;4417897;32;20472;-76
2022/10/17 03:48:17;;;;;;;0.73;0.62;;;14.00;99.90;;;;;;4417843;32;20399;-76
2022/10/17 03:50:42;;;;;;;0.40;0.40;;;14.10;99.90;;;;;;4419753;32;20113;-77
2022/10/17 03:53:08;;;;;;;0.50;0.50;;;14.10;99.90;;;;;;4420436;32;20133;-76
2022/10/17 03:55:33;;;;;;;0.70;0.70;;;14.00;99.90;;;;;;4420438;32;20521;-76
2022/10/17 03:57:59;;;;;;;1.15;0.75;;;14.00;99.90;;;;;;4419335;32;20078;-76
2022/10/17 04:00:24;;;;;;;0.50;0.50;;;14.00;99.90;;;;;;4420028;32;20478;-76
2022/10/17 04:02:49;;;;;;;6.07;1.27;;;14.00;99.90;;;;;;4411549;32;20109;-76
2022/10/17 04:05:15;;;;;;;0.62;0.62;;;14.00;99.90;;;;;;4394760;32;20074;-75
2022/10/17 04:07:40;;;;;;;0.52;0.52;;;14.00;99.90;;;;;;4410169;32;20116;-76
2022/10/17 04:10:06;;;;;;;0.60;0.60;;;14.10;99.90;;;;;;4419480;32;20079;-76
2022/10/17 04:12:32;;;;;;;2.00;0.73;;;14.10;99.90;;;;;;4417383;32;20103;-76
2022/10/17 04:14:57;;;;;;;0.50;0.50;;;14.10;99.90;;;;;;4413951;32;20443;-77
2022/10/17 04:17:23;;;;;;;0.45;0.45;;;14.10;99.90;;;;;;4415526;32;20123;-76
2022/10/17 04:19:48;;;;;;;0.35;0.35;;;14.10;99.90;;;;;;4416817;32;20061;-76
2022/10/17 04:22:14;;;;;;;0.50;0.50;;;14.10;99.90;;;;;;4399150;32;20564;-76
2022/10/17 04:24:39;;;;;;;0.30;0.30;;;14.10;99.90;;;;;;4376483;32;20261;-76
2022/10/17 04:27:05;;;;;;;0.50;0.50;;;14.10;99.90;;;;;;4381748;32;20081;-76
2022/10/17 04:29:31;;;;;;;0.52;0.52;;;14.10;99.90;;;;;;4376715;32;20116;-76
2022/10/17 04:31:56;;;;;;;0.40;0.40;;;14.10;99.90;;;;;;4383518;32;20266;-76
2022/10/17 04:34:22;;;;;;;0.50;0.50;;;14.00;99.90;;;;;;4359765;32;20296;-76
2022/10/17 04:36:47;;;;;;;0.47;0.47;;;14.00;99.90;;;;;;4377134;32;20102;-77
2022/10/17 04:39:13;;;;;;;1.42;1.25;;;14.00;99.90;;;;;;4414878;32;20086;-77
2022/10/17 04:41:38;;;;;;;0.37;0.37;;;14.00;99.90;;;;;;4414826;32;20125;-76
2022/10/17 04:44:04;;;;;;;0.60;0.60;;;14.00;99.90;;;;;;4417126;32;20537;-77
2022/10/17 04:46:32;;;;;;;0.90;0.85;;;14.00;99.90;;;;;;4415152;32;20133;-76
2022/10/17 04:48:58;;;;;;;0.50;0.50;;;14.00;99.90;;;;;;4420015;32;20097;-76
2022/10/17 04:51:23;;;;;;;0.40;0.40;;;13.90;99.90;;;;;;4416011;32;20081;-76
2022/10/17 04:53:49;;;;;;;0.57;0.57;;;13.90;99.90;;;;;;4374030;32;21116;-76
2022/10/17 04:56:19;;;;;;;0.60;0.60;;;13.80;99.90;;;;;;4385321;32;20351;-76
2022/10/17 04:58:46;;;;;;;0.50;0.50;;;13.80;99.90;;;;;;4413867;32;20623;-77
2022/10/17 05:01:15;;;;;;;0.30;0.30;;;13.80;99.90;;;;;;4406235;32;20458;-76
2022/10/17 05:03:41;;;;;;;0.43;0.43;;;13.70;99.90;;;;;;4376533;32;21837;-76
2022/10/17 05:06:10;;;;;;;0.80;0.50;;;13.70;99.90;;;;;;4368197;32;20599;-76
2022/10/17 05:08:36;;;;;;;11.18;2.17;;;13.70;99.90;;;;;;4373996;32;21076;-76
2022/10/17 05:11:02;;;;;;;0.40;0.40;;;13.70;99.90;;;;;;4376183;32;20081;-75
2022/10/17 05:13:28;;;;;;;0.82;0.82;;;13.80;99.90;;;;;;4366413;32;20454;-74
2022/10/17 05:15:56;;;;;;;0.40;0.40;;;13.80;99.90;;;;;;4374044;32;20824;-74
2022/10/17 05:18:22;;;;;;;0.52;0.52;;;13.80;99.90;;;;;;4336530;32;20260;-76
2022/10/17 05:20:47;;;;;;;0.50;0.50;;;13.80;99.90;;;;;;4339159;32;20085;-76
2022/10/17 05:23:13;;;;;;;1.45;0.98;;;13.80;99.90;;;;;;4327240;32;20536;-76
2022/10/17 05:25:38;;;;;;;0.40;0.40;;;13.80;99.90;;;;;;4317155;32;20101;-76
2022/10/17 05:28:04;;;;;;;0.40;0.40;;;13.80;99.90;;;;;;4347444;32;21180;-75
2022/10/17 05:30:29;;;;;;;0.50;0.50;;;13.80;99.90;;;;;;4310456;32;20442;-75
2022/10/17 05:32:55;;;;;;;1.62;1.08;;;13.80;99.90;;;;;;4342222;32;20295;-75
2022/10/17 05:35:21;;;;;;;0.55;0.55;;;13.80;99.90;;;;;;4355175;32;21078;-75
2022/10/17 05:37:47;;;;;;;1.00;0.57;;;13.80;99.90;;;;;;4364398;32;20823;-75
2022/10/17 05:40:13;;;;;;;0.50;0.50;;;13.90;99.90;;;;;;4357075;32;20134;-76
2022/10/17 05:42:38;;;;;;;0.40;0.40;;;13.80;99.90;;;;;;4364870;32;20785;-75
2022/10/17 05:45:04;;;;;;;0.52;0.52;;;13.80;99.90;;;;;;4374903;32;20228;-76
2022/10/17 05:47:30;;;;;;;1.08;0.82;;;13.80;99.90;;;;;;4382468;32;20085;-76
2022/10/17 05:49:56;;;;;;;3.40;1.00;;;13.80;99.90;;;;;;4370956;32;20315;-76
2022/10/17 05:52:21;;;;;;;0.50;0.50;;;13.80;99.90;;;;;;4379968;32;20418;-76
2022/10/17 05:54:46;;;;;;;1.12;0.82;;;13.70;99.90;;;;;;4380247;32;20109;-77
2022/10/17 05:57:12;;;;;;;0.88;0.85;;;13.70;99.90;;;;;;4373073;32;20168;-76
2022/10/17 05:59:38;;;;;;;0.50;0.50;;;13.80;99.90;;;;;;4354108;32;20294;-76
2022/10/17 06:02:04;;;;;;;1.20;0.80;;;13.70;99.90;;;;;;4358023;32;21893;-76
2022/10/17 06:04:30;;;;;;;39.53;2.35;;;13.70;99.90;;;;;;4349654;32;20117;-76
2022/10/17 06:06:55;;;;;;;0.37;0.37;;;13.70;99.90;;;;;;4366651;32;20181;-76
2022/10/17 06:09:21;;;;;;;0.75;0.75;;;13.70;99.90;;;;;;4353590;32;20401;-76
2022/10/17 06:11:47;;;;;;;1.15;0.80;;;13.80;99.90;;;;;;4363103;32;20617;-76
2022/10/17 06:14:12;;;;;;;0.65;0.50;;;13.80;99.90;;;;;;4366241;32;20106;-76
2022/10/17 06:16:38;;;;;;;0.60;0.60;;;13.80;99.90;;;;;;4371178;32;20089;-76
2022/10/17 06:19:03;;;;;;;0.75;0.70;;;13.80;99.90;;;;;;4366957;32;20089;-76
2022/10/17 06:21:29;;;;;;;1.17;0.80;;;13.80;99.90;;;;;;4373173;32;20450;-76
2022/10/17 06:23:55;;;;;;;0.47;0.47;;;13.80;99.90;;;;;;4369206;32;20253;-76
2022/10/17 06:26:20;;;;;;;0.50;0.50;;;13.80;99.90;;;;;;4378059;32;20151;-76
2022/10/17 06:28:46;;;;;;;0.88;0.80;;;13.80;99.90;;;;;;4373290;32;20113;-76
2022/10/17 06:31:14;;;;;;;0.60;0.60;;;13.80;99.90;;;;;;4369617;32;20449;-76
2022/10/17 06:33:40;;;;;;;0.60;0.60;;;13.80;99.90;;;;;;4356362;32;20118;-75
2022/10/17 06:36:08;;;;;;;0.88;0.80;;;13.80;99.90;;;;;;4377432;32;20092;-76
2022/10/17 06:38:35;;;;;;;0.77;0.77;;;13.80;99.90;;;;;;4368602;32;20872;-76
2022/10/17 06:41:07;;;;;;;0.55;0.55;;;13.90;99.90;;;;;;4372213;32;20090;-78
2022/10/17 06:43:36;;;;;;;0.50;0.50;;;13.90;99.90;;;;;;4364985;32;20118;-75
2022/10/17 06:46:02;;;;;;;0.80;0.80;;;13.90;99.90;;;;;;4378856;32;20761;-76
2022/10/17 06:48:27;;;;;;;0.60;0.60;;;14.00;99.90;;;;;;4388129;32;20113;-77
2022/10/17 06:50:57;;;;;;;0.50;0.50;;;14.00;99.90;;;;;;4393820;32;20093;-74
2022/10/17 06:53:23;;;;;;;0.40;0.40;;;14.00;99.90;;;;;;4399402;32;20136;-76
2022/10/17 06:58:17;;;;;;;0.40;0.40;;;14.10;99.90;;;;;;4350279;32;20056;-73
2022/10/17 07:00:43;;;;;;;2.62;1.20;;;14.00;99.90;;;;;;4326968;32;20193;-73
2022/10/17 07:03:08;;;;;;;0.62;0.50;;;14.10;99.90;;;;;;4319593;32;20655;-73
2022/10/17 07:05:34;;;;;;;0.80;0.80;;;14.10;99.90;;;;;;4332722;32;20149;-73
2022/10/17 07:07:59;;;;;;;1.02;0.50;;;14.20;99.90;;;;;;4338426;32;20564;-73
2022/10/17 07:10:28;;;;;;;0.57;0.57;;;14.20;99.90;;;;;;4349705;32;20078;-73
2022/10/17 07:12:53;;;;;;;1.37;0.70;;;14.30;99.90;;;;;;4360005;32;20735;-74
2022/10/17 07:15:19;;;;;;;0.60;0.60;;;14.40;99.90;;;;;;4350923;32;20098;-74
2022/10/17 07:17:49;;;;;;;0.43;0.43;;;14.50;99.90;;;;;;4355761;32;20094;-73
2022/10/17 07:20:14;;;;;;;0.40;0.40;;;14.50;99.90;;;;;;4353448;32;20090;-73
2022/10/17 07:22:40;;;;;;;2.47;0.90;;;14.60;99.90;;;;;;4352234;32;20160;-72
2022/10/17 07:25:06;;;;;;;0.50;0.50;;;14.60;99.90;;;;;;4361019;32;20364;-71
2022/10/17 07:27:31;;;;;;;0.57;0.57;;;14.70;99.90;;;;;;4361232;32;20090;-73
2022/10/17 07:29:57;;;;;;;0.47;0.47;;;14.70;99.90;;;;;;4353140;32;20090;-72
2022/10/17 07:32:23;;;;;;;1.37;0.55;;;14.80;99.90;;;;;;4346536;32;20324;-74
2022/10/17 07:34:48;;;;;;;2.70;1.20;;;14.80;99.90;;;;;;4345542;32;20368;-74
2022/10/17 07:37:14;;;;;;;0.40;0.40;;;14.90;99.90;;;;;;4366990;32;20238;-74
2022/10/17 07:39:39;;;;;;;0.75;0.75;;;15.00;99.90;;;;;;4367666;32;20087;-75
2022/10/17 07:42:06;;;;;;;0.47;0.47;;;15.10;99.90;;;;;;4371594;32;20547;-74
2022/10/17 07:44:32;;;;;;;0.50;0.50;;;15.20;99.90;;;;;;4374073;32;20102;-75
2022/10/17 07:46:57;;;;;;;0.50;0.50;;;15.30;99.90;;;;;;4359186;32;20090;-73
2022/10/17 07:49:23;;;;;;;0.70;0.70;;;15.40;99.90;;;;;;4351933;32;20095;-75
2022/10/17 07:51:48;;;;;;;0.50;0.50;;;15.50;99.90;;;;;;4338532;32;22292;-74
2022/10/17 07:54:14;;;;;;;0.50;0.50;;;15.70;99.90;;;;;;4347352;32;20855;-74
2022/10/17 07:56:39;;;;;;;0.50;0.50;;;15.80;99.90;;;;;;4350114;32;20215;-74
2022/10/17 07:59:05;;;;;;;0.50;0.50;;;15.90;99.90;;;;;;4340386;32;20101;-73
2022/10/17 08:01:30;;;;;;;0.40;0.40;;;16.00;99.90;;;;;;4332154;32;20094;-73
2022/10/17 08:03:56;;;;;;;0.40;0.40;;;16.10;99.90;;;;;;4330207;32;20123;-73
2022/10/17 08:06:21;;;;;;;0.68;0.68;;;16.20;99.90;;;;;;4338031;32;20202;-74
2022/10/17 08:08:47;;;;;;;0.50;0.50;;;16.40;99.90;;;;;;4336174;32;20779;-73
2022/10/17 08:11:14;;;;;;;0.70;0.70;;;16.50;99.90;;;;;;4332478;32;20380;-73
2022/10/17 08:13:40;;;;;;;0.93;0.40;;;16.60;99.90;;;;;;4334010;32;20139;-74
2022/10/17 08:16:08;;;;;;;2.72;1.37;;;16.70;99.90;;;;;;4351232;32;21138;-74
2022/10/17 08:18:35;;;;;;;6.35;0.77;;;16.80;99.90;;;;;;4342857;32;20109;-74
2022/10/17 08:21:04;;;;;;;0.50;0.50;;;17.00;99.90;;;;;;4343766;32;20158;-74
2022/10/17 08:23:30;;;;;;;1.58;0.90;;;17.10;99.90;;;;;;4346152;32;20208;-74
2022/10/17 08:25:59;;;;;;;0.52;0.52;;;17.30;99.90;;;;;;4351881;32;20115;-74
2022/10/17 08:28:25;;;;;;;0.73;0.60;;;17.30;99.90;;;;;;4336003;32;20098;-75
2022/10/17 08:30:50;;;;;;;0.40;0.40;;;17.40;99.90;;;;;;4334483;32;21597;-74
2022/10/17 08:33:16;;;;;;;2.47;0.80;;;17.50;99.90;;;;;;4319628;32;103812;-76
2022/10/17 08:35:41;;;;;;;1.17;0.73;;;17.50;99.90;;;;;;4327331;32;20086;-73
2022/10/17 08:38:07;;;;;;;0.50;0.50;;;17.60;99.90;;;;;;4325361;32;20115;-74
2022/10/17 08:40:32;;;;;;;3.92;0.50;;;17.70;99.90;;;;;;4325777;32;20122;-75
2022/10/17 08:43:23;;;;;;;0.65;0.65;;;17.90;99.90;;;;;;4327746;32;20063;-74
2022/10/17 08:45:52;;;;;;;;;;;18.00;99.90;;;;;;4310665;32;20287;-73
2022/10/17 08:48:22;;;;;;;2.25;0.55;;;18.10;99.90;;;;;;4328587;32;19977;-75
2022/10/17 08:50:55;;;;;;;0.57;0.52;;;18.20;99.90;;;;;;4329073;32;20119;-75
2022/10/17 08:53:29;;;;;;;0.40;0.40;;;18.40;99.90;;;;;;4343848;32;20745;-76
2022/10/17 08:55:55;;;;;;;0.37;0.37;;;18.50;99.90;;;;;;4344601;32;20099;-77
2022/10/17 08:58:26;;;;;;;3.83;1.12;;;18.50;99.90;;;;;;4333894;32;20297;-78
2022/10/17 09:01:12;;;;;;;0.60;0.60;;;18.60;99.90;;;;;;4357686;32;20078;-77
2022/10/17 09:03:54;;;;;;;0.55;0.55;;;18.70;99.90;;;;;;4337265;32;20101;-76
2022/10/17 09:06:28;;;;;;;1.60;0.52;;;18.70;99.90;;;;;;4349467;32;21601;-76
2022/10/17 09:08:57;;;;;;;0.73;0.73;;;18.90;99.90;;;;;;4368039;32;20115;-76
2022/10/17 09:11:51;;;;;;;0.40;0.40;;;19.10;99.90;;;;;;4357095;32;20101;-75
2022/10/17 09:14:56;;;;;;;0.50;0.50;;;19.20;99.90;;;;;;4340261;32;20110;-76
2022/10/17 09:17:33;;;;;;;0.40;0.40;;;19.30;99.90;;;;;;4335114;32;20451;-76
2022/10/17 09:20:04;;;;;;;0.40;0.40;;;19.40;99.90;;;;;;4345944;32;20091;-74
2022/10/17 09:22:40;;;;;;;0.30;0.30;;;19.40;99.90;;;;;;4325403;32;20106;-75
2022/10/17 09:25:12;;;;;;;0.40;0.40;;;19.60;99.90;;;;;;4334148;32;20106;-75
2022/10/17 09:27:44;;;;;;;0.32;0.32;;;19.70;99.90;;;;;;4342979;32;20685;-76
2022/10/17 09:30:46;;;;;;;0.30;0.30;;;19.80;99.90;;;;;;4339080;32;20177;-76
2022/10/17 09:33:17;;;;;;;3.30;0.57;;;20.00;99.90;;;;;;4332497;32;20436;-75
2022/10/17 09:35:44;;;;;;;0.68;0.68;;;20.10;99.90;;;;;;4354500;32;20086;-74
2022/10/17 09:38:17;;;;;;;0.40;0.40;;;20.10;99.90;;;;;;4372558;32;20106;-75
2022/10/17 09:40:44;;;;;;;0.47;0.47;;;20.20;99.90;;;;;;4374890;32;20489;-77
2022/10/17 09:43:12;;;;;;;1.87;0.50;;;20.30;99.90;;;;;;4365388;32;20259;-76
2022/10/17 09:45:59;;;;;;;0.47;0.47;;;20.30;99.90;;;;;;4379643;32;20078;-75
2022/10/17 09:48:30;;;;;;;1.45;1.00;;;20.40;99.90;;;;;;4372249;32;20150;-74
2022/10/17 09:50:56;;;;;;;0.52;0.52;;;20.60;99.90;;;;;;4361960;32;21110;-75
2022/10/17 09:53:28;;;;;;;0.30;0.30;;;20.70;99.90;;;;;;4363941;32;20215;-76
2022/10/17 09:55:56;;;;;;;1.80;0.95;;;20.90;99.90;;;;;;4365902;32;20098;-75
2022/10/17 09:58:22;;;;;;;1.10;1.08;;;21.00;99.90;;;;;;4369694;32;20113;-75
2022/10/17 10:00:48;;;;;;;0.50;0.50;;;21.20;99.90;;;;;;4365790;32;20149;-74
2022/10/17 10:03:20;;;;;;;0.50;0.50;;;21.30;99.90;;;;;;4365809;32;20083;-75
2022/10/17 10:05:59;;;;;;;0.40;0.40;;;21.30;99.90;;;;;;4369478;32;20101;-77
2022/10/17 10:08:30;;;;;;;3.25;1.30;;;21.40;99.90;;;;;;4371986;27;20129;-75
2022/10/17 10:11:03;;;;;;;0.30;0.30;;;21.50;99.90;;;;;;4362935;32;20551;-75
2022/10/17 10:13:30;;;;;;;0.70;0.70;;;21.60;99.90;;;;;;4360563;32;20118;-75
2022/10/17 10:16:15;;;;;;;0.62;0.62;;;21.70;99.90;;;;;;4363373;32;20093;-76
2022/10/17 10:18:40;;;;;;;0.40;0.40;;;21.80;99.90;;;;;;4327398;32;20122;-76
2022/10/17 10:21:24;;;;;;;0.52;0.52;;;21.90;99.90;;;;;;4355790;32;20416;-76
2022/10/17 10:24:11;;;;;;;0.55;0.55;;;21.90;99.90;;;;;;4342254;32;20460;-76
2022/10/17 10:26:40;;;;;;;0.73;0.73;;;21.90;99.90;;;;;;4347621;32;20610;-75
2022/10/17 10:29:23;;;;;;;2.28;0.52;;;21.80;99.90;;;;;;4371963;32;20094;-76
2022/10/17 10:31:50;;;;;;;0.30;0.30;;;21.90;99.90;;;;;;4360137;32;20770;-76
2022/10/17 10:34:27;;;;;;;0.55;0.55;;;21.90;99.90;;;;;;4357236;32;20422;-76
2022/10/17 10:36:59;;;;;;;6.03;0.55;;;22.00;99.90;;;;;;4365376;32;20177;-76
2022/10/17 10:39:38;;;;;;;1.08;0.68;;;22.10;99.90;;;;;;4372019;32;20513;-76
2022/10/17 10:42:07;;;;;;;0.35;0.35;;;22.20;99.90;;;;;;4367933;32;20969;-76
2022/10/17 10:44:35;;;;;;;0.30;0.30;;;22.30;99.90;;;;;;4374080;32;20070;-76
2022/10/17 10:47:19;;;;;;;0.70;0.68;;;22.50;99.90;;;;;;4373225;32;20512;-75
2022/10/17 10:49:45;;;;;;;0.40;0.40;;;22.70;99.90;;;;;;4364418;32;20093;-76
2022/10/17 10:52:33;;;;;;;1.10;0.62;;;22.90;99.90;;;;;;4361587;32;20094;-75
2022/10/17 10:55:22;;;;;;;0.28;0.28;;;23.10;99.90;;;;;;4354254;32;20264;-75
2022/10/17 10:57:52;;;;;;;0.40;0.40;;;23.20;99.90;;;;;;4338880;32;20094;-75
2022/10/17 11:00:23;;;;;;;0.25;0.25;;;23.40;99.90;;;;;;4356003;32;20861;-76
2022/10/17 11:03:09;;;;;;;0.20;0.20;;;23.70;99.90;;;;;;4353863;32;20489;-76
2022/10/17 11:05:40;;;;;;;1.17;0.70;;;23.90;99.90;;;;;;4347865;32;20996;-75
2022/10/17 11:08:10;;;;;;;;;;;24.10;99.90;;;;;;4368632;32;20430;-75
2022/10/17 11:10:58;;;;;;;0.60;0.60;;;24.10;99.90;;;;;;4359074;32;20001;-77
2022/10/17 11:13:29;;;;;;;0.37;0.37;;;24.00;99.90;;;;;;4345697;32;21006;-76
2022/10/17 11:16:22;;;;;;;0.40;0.40;;;24.10;99.90;;;;;;4343996;32;20093;-76
2022/10/17 11:19:25;;;;;;;1.17;0.75;;;24.30;99.90;;;;;;4319572;32;20747;-75
2022/10/17 11:22:21;;;;;;;0.28;0.28;;;24.70;99.90;;;;;;4331404;32;20967;-76
2022/10/17 11:24:59;;;;;;;4.00;1.15;;;24.80;99.90;;;;;;4339404;32;20093;-77
2022/10/17 11:27:27;;;;;;;0.13;0.13;;;24.90;99.90;;;;;;4358307;32;20906;-76
2022/10/17 11:29:53;;;;;;;0.45;0.30;;;25.10;99.90;;;;;;4356520;32;20118;-77
2022/10/17 11:32:29;;;;;;;0.47;0.30;;;25.00;99.90;;;;;;4356426;32;20726;-76
2022/10/17 11:35:03;;;;;;;0.37;0.37;;;25.10;99.90;;;;;;4353213;32;20151;-76
2022/10/17 11:37:35;;;;;;;0.30;0.30;;;25.00;99.90;;;;;;4352211;32;20499;-76
2022/10/17 11:40:09;;;;;;;0.10;0.10;;;25.10;99.90;;;;;;4354955;32;20155;-76
2022/10/17 11:42:44;;;;;;;0.20;0.20;;;25.20;99.90;;;;;;4335853;32;20119;-78
2022/10/17 11:45:15;;;;;;;0.20;0.20;;;25.40;99.90;;;;;;4347463;32;20139;-76
2022/10/17 11:47:48;;;;;;;0.57;0.50;;;25.50;99.90;;;;;;4345042;32;20916;-78
2022/10/17 11:50:38;;;;;;;0.28;0.25;;;25.60;99.90;;;;;;4343474;32;20871;-78
2022/10/17 11:53:11;;;;;;;2.58;0.95;;;25.70;99.90;;;;;;4335235;32;20094;-78
2022/10/17 11:55:38;;;;;;;0.25;0.13;;;25.70;99.90;;;;;;4349926;32;20612;-76
2022/10/17 11:58:44;;;;;;;7.90;0.50;;;25.70;99.90;;;;;;4353398;32;20312;-77
2022/10/17 12:01:25;;;;;;;0.43;0.40;;;26.00;99.90;;;;;;4339202;32;20152;-75
2022/10/17 12:04:14;;;;;;;0.10;0.10;;;26.40;99.90;;;;;;4349166;32;20703;-77
2022/10/17 12:06:48;;;;;;;0.20;0.20;;;26.70;99.90;;;;;;4355841;32;20244;-76
2022/10/17 12:09:33;;;;;;;0.10;0.10;;;26.70;99.90;;;;;;4360362;32;20078;-77
2022/10/17 12:12:01;;;;;;;0.15;0.15;;;27.00;99.90;;;;;;4334082;32;20159;-77
2022/10/17 12:14:44;;;;;;;0.40;0.40;;;27.30;99.90;;;;;;4347273;32;20097;-76
2022/10/17 12:17:33;;;;;;;1.17;0.65;;;27.60;99.90;;;;;;4354869;32;20105;-76
2022/10/17 12:20:22;;;;;;;0.25;0.20;;;27.70;99.90;;;;;;4335663;32;20098;-76
2022/10/17 12:22:50;;;;;;;0.15;0.15;;;28.00;99.90;;;;;;4337236;32;20344;-77
2022/10/17 12:25:20;;;;;;;0.28;0.20;;;27.90;99.90;;;;;;4367289;32;20089;-76
2022/10/17 12:27:48;;;;;;;0.20;0.20;;;28.00;99.90;;;;;;4358069;32;20574;-76
2022/10/17 12:30:19;;;;;;;0.10;0.10;;;28.40;99.90;;;;;;4343126;32;20726;-78
2022/10/17 12:32:54;;;;;;;0.10;0.10;;;28.60;99.90;;;;;;4338774;32;20125;-77
2022/10/17 12:35:22;;;;;;;4.12;0.65;;;28.80;99.50;;;;;;4343810;32;20696;-78
2022/10/17 12:37:52;;;;;;;0.20;0.20;;;29.00;99.00;;;;;;4350797;32;20172;-78
2022/10/17 12:40:48;;;;;;;0.20;0.15;;;28.80;98.90;;;;;;4345659;32;20162;-78
2022/10/17 12:43:16;;;;;;;0.62;0.45;;;28.60;99.30;;;;;;4343536;32;20595;-77
2022/10/17 12:45:50;;;;;;;0.10;0.10;;;28.20;99.60;;;;;;4371203;32;20189;-77
2022/10/17 12:48:37;;;;;;;0.10;0.10;;;28.10;99.80;;;;;;4363880;32;20861;-78
2022/10/17 12:51:13;;;;;;;1.40;0.40;;;27.80;99.90;;;;;;4350200;32;20286;-77
2022/10/17 12:54:07;;;;;;;10.77;1.98;;;27.90;99.90;;;;;;4363504;32;20181;-76
2022/10/17 12:56:40;;;;;;;0.15;0.15;;;27.80;99.90;;;;;;4355145;32;20893;-77
2022/10/17 12:59:18;;;;;;;4.70;0.55;;;27.40;99.90;;;;;;4354942;32;20378;-76
2022/10/17 13:01:47;;;;;;;22.83;0.80;;;27.00;99.90;;;;;;4356568;32;20113;-77
2022/10/17 13:04:12;;;;;;;0.10;0.10;;;26.80;99.90;;;;;;4357807;32;20236;-76
2022/10/17 13:06:48;;;;;;;0.10;0.10;;;26.70;99.90;;;;;;4367026;32;20353;-76
2022/10/17 13:09:26;;;;;;;0.20;0.20;;;26.40;99.90;;;;;;4375597;32;20093;-77